Aérodrome :
LOGIN :

S'inscrire | Disclaimer

   EN    FR    IT 

 










Légende :    VFR   VFR Marginal   IFR   IFR Intensif   IFR Très Intensif
Visi : 
Plafond : 
>= 8 km
>= 3000ft
5 à 8 km
1000 à 3000 ft
1500m à 5 km
500 à 1000 ft
800 à 1500m
200 à 500 ft
< 800m
< 200 ft
Symboles :   Orages  Brouillard  Fortes neiges  Fortes précipitations  Vent > 20 kt
SIGMETs :   Divers  Orages  Givrage  Turbulence  Onde Orograph.  Cendres Volcan.







- Altitude de l'aérodrome : 20 ft


EBFN - Koksijde

DERNIER METAR :
  • 210725Z AUTO 07006KT 9999 NCD 14/06 Q1022 BLU

METARs EXPIRÉS :
  • 210716Z AUTO 08005KT 9999 NCD 14/06 Q1022 BLU
  • 210705Z AUTO 08004KT 7000 NCD 13/06 Q1022 WHT
  • 210655Z AUTO 07004KT 9999 NCD 13/06 Q1022 BLU
  • 210625Z AUTO 06003KT 9000 NCD 11/06 Q1022 BLU
  • 210616Z AUTO 07003KT 7000 NCD 11/06 Q1022 WHT
  • 210555Z AUTO 07004KT 9999 NCD 09/05 Q1022 BLU
  • 210538Z AUTO 07003KT 7000 NCD 09/04 Q1022 WHT
  • 210525Z AUTO 06004KT 9000 NCD 09/04 Q1022 BLU
  • 210455Z AUTO 08004KT 8000 NCD 08/04 Q1022 BLU

TAF TAF EBFN
Valide du 21 à 07h jusqu'au 21 à 16h UTC


210541Z 2107/2116 08006KT 9999 SKC
TEMPO 2111/2116 01007KT
Pas de NOTAMs connus pour ce terrain.



MET'MAP, la Météo Aéronautique d'un coup d'oeil ! - Copyright ORBIFLY Décembre 2007 - Disclaimer

ORBIFLY MET'MAP TEAM :

Programmation & Développement : Alexandra Zaïnal
Conception & Développement : Baudouin d'Aumeries
Co-Programmation & Développement : Marc-Olivier Méhu
Soutien technique & logistique : Manuel Goepfert

Contact : metmap@orbifly.com




SOURCES & CREDITS :

   NOAA